createdAt,value
2023-03-10T00:02:14.226Z,13.12
2023-03-10T00:05:04.936Z,13.10
2023-03-10T00:07:34.959Z,13.13
2023-03-10T00:10:17.644Z,13.18
2023-03-10T00:12:54.439Z,13.18
2023-03-10T00:15:34.127Z,13.19
2023-03-10T00:18:13.538Z,13.19
2023-03-10T00:20:47.612Z,13.03
2023-03-10T00:23:23.464Z,13.22
2023-03-10T00:26:02.473Z,13.14
2023-03-10T00:28:40.768Z,13.14
2023-03-10T00:31:22.914Z,13.14
2023-03-10T00:34:16.488Z,13.14
2023-03-10T00:37:00.314Z,13.10
2023-03-10T00:39:41.678Z,13.09
2023-03-10T00:42:21.666Z,13.11
2023-03-10T00:45:05.780Z,13.02
2023-03-10T00:47:42.102Z,13.02
2023-03-10T00:50:21.001Z,12.99
2023-03-10T00:52:52.325Z,12.97
2023-03-10T00:55:32.891Z,12.96
2023-03-10T00:58:05.339Z,12.92
2023-03-10T01:01:01.633Z,12.85
2023-03-10T01:03:42.887Z,12.83
2023-03-10T01:06:24.395Z,12.84
2023-03-10T01:08:58.595Z,12.87
2023-03-10T01:11:44.602Z,12.88
2023-03-10T01:14:28.281Z,12.87
2023-03-10T01:17:16.515Z,12.85
2023-03-10T01:19:59.838Z,12.79
2023-03-10T01:22:33.711Z,12.80
2023-03-10T01:25:08.268Z,12.82
2023-03-10T01:27:43.643Z,12.70
2023-03-10T01:30:18.304Z,12.65
2023-03-10T01:33:12.519Z,12.69
2023-03-10T01:35:51.549Z,12.68
2023-03-10T01:38:32.713Z,12.65
2023-03-10T01:41:24.752Z,12.63
2023-03-10T01:43:58.622Z,12.57
2023-03-10T01:47:02.419Z,12.56
2023-03-10T01:49:50.207Z,12.47
2023-03-10T01:52:27.588Z,12.45
2023-03-10T01:55:08.087Z,12.42
2023-03-10T01:57:55.477Z,12.35
2023-03-10T02:00:55.708Z,12.39
2023-03-10T02:03:43.282Z,12.36
2023-03-10T02:06:34.903Z,12.32
2023-03-10T02:09:11.627Z,12.28
2023-03-10T02:11:48.226Z,12.26
2023-03-10T02:14:21.911Z,12.10
2023-03-10T02:17:03.134Z,12.09
2023-03-10T02:19:50.027Z,12.22
2023-03-10T02:22:31.245Z,12.19
2023-03-10T02:25:18.994Z,12.17
2023-03-10T02:28:00.283Z,12.12
2023-03-10T02:30:46.883Z,12.08
2023-03-10T02:33:28.745Z,12.05
2023-03-10T02:36:09.834Z,12.05
2023-03-10T02:38:49.977Z,12.03
2023-03-10T02:41:45.580Z,11.98
2023-03-10T02:44:32.366Z,11.96
2023-03-10T02:47:23.156Z,11.93
2023-03-10T02:50:00.289Z,11.71
2023-03-10T02:52:51.377Z,11.88
2023-03-10T02:55:32.121Z,11.91
2023-03-10T02:58:09.951Z,11.90
2023-03-10T03:00:56.123Z,11.89
2023-03-10T03:03:32.902Z,11.93
2023-03-10T03:06:07.893Z,11.96
2023-03-10T03:08:42.205Z,11.97
2023-03-10T03:11:41.517Z,11.95
2023-03-10T03:14:25.069Z,12.01
2023-03-10T03:17:08.463Z,11.95
2023-03-10T03:19:47.558Z,11.98
2023-03-10T03:22:27.674Z,11.97
2023-03-10T03:25:15.233Z,12.01
2023-03-10T03:27:53.277Z,12.01
2023-03-10T03:30:36.308Z,11.99
2023-03-10T03:33:25.309Z,12.01
2023-03-10T03:36:01.845Z,12.01
2023-03-10T03:38:46.618Z,11.98
2023-03-10T03:41:28.096Z,12.01
2023-03-10T03:44:05.697Z,12.02
2023-03-10T03:46:44.622Z,12.02
2023-03-10T03:49:34.051Z,12.02
2023-03-10T03:52:13.175Z,12.03
2023-03-10T03:54:52.835Z,12.05
2023-03-10T03:57:31.466Z,12.01
2023-03-10T04:00:10.095Z,12.06
2023-03-10T04:03:09.792Z,12.06
2023-03-10T04:05:51.098Z,12.02
2023-03-10T04:08:33.992Z,12.08
2023-03-10T04:11:11.277Z,12.10
2023-03-10T04:13:51.101Z,12.10
2023-03-10T04:16:32.887Z,12.10
2023-03-10T04:19:08.752Z,12.11
2023-03-10T04:21:56.157Z,12.07
2023-03-10T04:24:40.966Z,12.05
2023-03-10T04:27:24.045Z,12.08
2023-03-10T04:30:10.594Z,12.07
2023-03-10T04:32:49.333Z,11.82
2023-03-10T04:35:33.881Z,12.04
2023-03-10T04:38:33.089Z,12.02
2023-03-10T04:46:53.028Z,12.06
2023-03-10T04:49:28.469Z,12.03
2023-03-10T04:52:06.610Z,12.01
2023-03-10T04:55:01.255Z,11.94
2023-03-10T05:00:29.771Z,11.98
2023-03-10T05:03:20.319Z,11.98
2023-03-10T05:05:52.094Z,11.97
2023-03-10T05:08:25.925Z,11.97
2023-03-10T05:11:20.588Z,11.97
2023-03-10T05:13:53.955Z,11.99
2023-03-10T05:16:28.961Z,11.98
2023-03-10T05:19:21.969Z,11.99
2023-03-10T05:22:01.987Z,11.97
2023-03-10T05:24:50.979Z,11.81
2023-03-10T05:27:52.433Z,12.02
2023-03-10T05:30:25.798Z,12.02
2023-03-10T05:33:08.263Z,12.04
2023-03-10T05:35:48.342Z,11.91
2023-03-10T05:38:33.660Z,11.99
2023-03-10T05:41:26.324Z,11.99
2023-03-10T05:44:19.149Z,12.04
2023-03-10T05:46:58.963Z,12.05
2023-03-10T05:49:33.066Z,11.86
2023-03-10T05:52:10.222Z,12.07
2023-03-10T05:54:52.550Z,12.10
2023-03-10T05:57:28.406Z,12.11
2023-03-10T06:00:17.594Z,12.16
2023-03-10T06:03:07.667Z,12.15
2023-03-10T06:05:39.651Z,12.15
2023-03-10T06:08:22.818Z,12.21
2023-03-10T06:10:56.577Z,12.20
2023-03-10T06:13:33.918Z,12.23
2023-03-10T06:16:15.909Z,12.26
2023-03-10T06:18:50.810Z,12.31
2023-03-10T06:21:26.547Z,12.21
2023-03-10T06:24:01.856Z,12.39
2023-03-10T06:26:35.249Z,12.49
2023-03-10T06:29:12.018Z,12.55
2023-03-10T06:31:50.230Z,12.62
2023-03-10T06:34:32.706Z,12.67
2023-03-10T06:37:09.726Z,12.77
2023-03-10T06:40:01.491Z,12.81
2023-03-10T06:42:36.773Z,12.85
2023-03-10T06:45:13.405Z,12.95
2023-03-10T06:47:59.930Z,12.95
2023-03-10T06:50:39.956Z,13.03
2023-03-10T06:53:20.848Z,13.15
2023-03-10T06:56:02.575Z,13.21
2023-03-10T06:58:35.203Z,13.25
2023-03-10T07:01:15.730Z,13.30
2023-03-10T07:03:51.534Z,13.34
2023-03-10T07:06:29.586Z,13.08
2023-03-10T07:09:06.757Z,13.52
2023-03-10T07:11:47.269Z,13.47
2023-03-10T07:14:24.606Z,13.63
2023-03-10T07:17:03.502Z,13.68
2023-03-10T07:19:52.394Z,13.67
2023-03-10T07:22:39.956Z,13.67
2023-03-10T07:25:18.515Z,13.72
2023-03-10T07:27:53.887Z,13.78
2023-03-10T07:30:41.401Z,13.98
2023-03-10T07:33:20.152Z,14.03
2023-03-10T07:35:58.032Z,14.05
2023-03-10T07:38:38.125Z,14.02
2023-03-10T07:41:16.191Z,14.19
2023-03-10T07:43:51.125Z,14.22
2023-03-10T07:46:28.564Z,14.26
2023-03-10T07:49:11.619Z,14.24
2023-03-10T07:51:55.232Z,14.10
2023-03-10T07:54:42.047Z,14.34
2023-03-10T07:57:23.336Z,14.36
2023-03-10T08:00:06.451Z,14.29
2023-03-10T08:02:51.464Z,14.42
2023-03-10T08:05:30.085Z,14.46
2023-03-10T08:08:11.932Z,14.28
2023-03-10T08:10:49.796Z,14.45
2023-03-10T08:13:35.474Z,14.40
2023-03-10T08:16:08.113Z,14.52
2023-03-10T08:19:07.487Z,14.57
2023-03-10T08:21:43.797Z,14.57
2023-03-10T08:24:22.061Z,14.52
2023-03-10T08:26:55.495Z,14.60
2023-03-10T08:29:35.336Z,14.64
2023-03-10T08:32:13.737Z,14.68
2023-03-10T08:34:45.325Z,14.57
2023-03-10T08:37:21.696Z,14.73
2023-03-10T08:40:11.167Z,14.66
2023-03-10T08:42:51.162Z,14.76
2023-03-10T08:45:21.614Z,14.77
2023-03-10T08:48:15.318Z,14.83
2023-03-10T08:50:54.109Z,14.85
2023-03-10T08:53:29.681Z,14.86
2023-03-10T08:56:17.848Z,14.60
2023-03-10T08:58:57.725Z,14.81
2023-03-10T09:01:37.998Z,14.56
2023-03-10T09:04:28.813Z,14.71
2023-03-10T09:07:05.776Z,14.75
2023-03-10T09:09:39.891Z,14.62
2023-03-10T09:12:39.065Z,14.69
2023-03-10T09:15:20.808Z,14.65
2023-03-10T09:17:56.012Z,14.67
2023-03-10T09:20:38.215Z,14.68
2023-03-10T09:23:19.182Z,14.68
2023-03-10T09:25:57.837Z,14.64
2023-03-10T09:28:38.499Z,14.48
2023-03-10T09:31:16.523Z,14.52
2023-03-10T09:34:02.652Z,14.36
2023-03-10T09:36:34.220Z,14.41
2023-03-10T09:39:24.841Z,14.42
2023-03-10T09:42:38.377Z,14.38
2023-03-10T09:45:58.661Z,14.32
2023-03-10T09:48:52.777Z,14.26
2023-03-10T09:51:29.855Z,14.21
2023-03-10T09:54:15.720Z,14.18
2023-03-10T09:56:55.702Z,14.15
2023-03-10T09:59:38.949Z,13.98
2023-03-10T10:02:41.662Z,13.97
2023-03-10T10:05:24.799Z,13.89
2023-03-10T10:08:12.099Z,13.55
2023-03-10T10:10:45.281Z,13.46
2023-03-10T10:13:27.545Z,13.34
2023-03-10T10:16:31.941Z,13.26
2023-03-10T10:19:24.233Z,13.24
2023-03-10T10:22:09.914Z,13.17
2023-03-10T10:25:01.619Z,13.16
2023-03-10T10:27:38.522Z,13.12
2023-03-10T10:30:33.343Z,12.86
2023-03-10T10:33:29.441Z,12.81
2023-03-10T10:36:25.528Z,12.83
2023-03-10T10:38:59.205Z,12.86
2023-03-10T10:41:56.723Z,12.74
2023-03-10T10:44:30.560Z,12.30
2023-03-10T10:47:07.200Z,12.67
2023-03-10T10:49:46.306Z,12.68
2023-03-10T10:52:31.199Z,12.68
2023-03-10T10:55:28.029Z,12.68
2023-03-10T10:58:07.759Z,12.65
2023-03-10T11:00:42.666Z,12.73
2023-03-10T11:03:37.592Z,12.71
2023-03-10T11:06:35.936Z,12.72
2023-03-10T11:09:25.283Z,12.50
2023-03-10T11:12:27.917Z,12.75
2023-03-10T11:15:32.137Z,12.77
2023-03-10T11:18:21.566Z,12.77
2023-03-10T11:21:14.675Z,12.81
2023-03-10T11:24:15.950Z,12.81
2023-03-10T11:27:05.549Z,12.78
2023-03-10T11:30:04.179Z,12.75
2023-03-10T11:32:57.753Z,12.79
2023-03-10T11:35:44.196Z,12.83
2023-03-10T11:38:42.968Z,12.86
2023-03-10T11:41:29.359Z,12.77
2023-03-10T11:44:05.994Z,12.88
2023-03-10T11:46:54.870Z,12.90
2023-03-10T11:49:41.299Z,12.88
2023-03-10T11:52:23.881Z,12.90
2023-03-10T11:55:13.148Z,12.89
2023-03-10T11:58:01.245Z,12.87
2023-03-10T12:00:40.226Z,12.90
2023-03-10T12:03:33.488Z,12.90
2023-03-10T12:06:16.513Z,13.01
2023-03-10T12:08:53.741Z,13.06
2023-03-10T12:11:39.253Z,13.20
2023-03-10T12:14:40.507Z,13.24
2023-03-10T12:17:27.205Z,13.36
2023-03-10T12:20:32.875Z,13.51
2023-03-10T12:23:27.269Z,13.63
2023-03-10T12:26:00.302Z,13.56
2023-03-10T12:28:38.697Z,13.63
2023-03-10T12:31:19.308Z,13.86
2023-03-10T12:34:04.304Z,13.83
2023-03-10T12:36:55.492Z,13.68
2023-03-10T12:39:47.739Z,13.75
2023-03-10T12:42:50.874Z,13.76
2023-03-10T12:45:35.335Z,13.80
2023-03-10T12:48:13.328Z,13.86
2023-03-10T12:51:18.612Z,14.00
2023-03-10T12:54:43.720Z,14.20
2023-03-10T12:57:30.064Z,14.43
2023-03-10T13:00:16.759Z,14.60
2023-03-10T13:02:55.948Z,14.61
2023-03-10T13:05:43.044Z,14.82
2023-03-10T13:08:29.027Z,14.65
2023-03-10T13:11:10.268Z,15.00
2023-03-10T13:13:49.293Z,15.20
2023-03-10T13:16:30.592Z,15.32
2023-03-10T13:19:07.207Z,15.29
2023-03-10T13:21:44.622Z,15.50
2023-03-10T13:24:41.777Z,15.72
2023-03-10T13:27:27.133Z,15.67
2023-03-10T13:30:03.138Z,15.81
2023-03-10T13:32:40.619Z,15.75
2023-03-10T13:35:28.371Z,15.85
2023-03-10T13:38:15.379Z,16.05
2023-03-10T13:40:51.198Z,16.14
2023-03-10T13:43:41.663Z,15.90
2023-03-10T13:46:19.716Z,16.04
2023-03-10T13:48:56.243Z,16.06
2023-03-10T13:51:31.868Z,16.01
2023-03-10T13:54:37.366Z,16.00
2023-03-10T13:57:16.879Z,15.91
2023-03-10T13:59:56.712Z,15.87
2023-03-10T14:02:34.963Z,15.71
2023-03-10T14:05:13.558Z,15.86
2023-03-10T14:08:06.868Z,15.87
2023-03-10T14:10:41.092Z,15.85
2023-03-10T14:13:47.073Z,15.81
2023-03-10T14:19:12.834Z,15.63
2023-03-10T14:21:59.920Z,15.62
2023-03-10T14:24:40.833Z,15.37
2023-03-10T14:27:18.136Z,15.38
2023-03-10T14:29:54.237Z,15.41
2023-03-10T14:32:37.187Z,15.24
2023-03-10T14:35:15.188Z,15.28
2023-03-10T14:37:53.998Z,15.25
2023-03-10T14:40:29.565Z,15.19
2023-03-10T14:43:05.944Z,15.21
2023-03-10T14:45:47.006Z,15.21
2023-03-10T14:48:24.316Z,15.32
2023-03-10T14:50:57.177Z,15.29
2023-03-10T14:53:32.493Z,15.30
2023-03-10T14:56:11.106Z,15.31
2023-03-10T14:58:54.502Z,15.33
2023-03-10T15:01:36.234Z,15.34
2023-03-10T15:04:13.893Z,15.24
2023-03-10T15:06:53.745Z,15.26
2023-03-10T15:09:26.119Z,15.27
2023-03-10T15:12:03.667Z,15.26
2023-03-10T15:14:46.126Z,15.08
2023-03-10T15:17:19.144Z,15.19
2023-03-10T15:19:59.064Z,15.19
2023-03-10T15:22:31.861Z,15.21
2023-03-10T15:25:04.627Z,15.22
2023-03-10T15:27:42.122Z,15.18
2023-03-10T15:30:25.499Z,14.89
2023-03-10T15:32:57.861Z,15.27
2023-03-10T15:35:37.761Z,15.48
2023-03-10T15:38:08.370Z,15.64
2023-03-10T15:40:43.447Z,15.68
2023-03-10T15:43:21.329Z,15.77
2023-03-10T15:45:52.070Z,15.81
2023-03-10T15:48:24.930Z,15.76
2023-03-10T15:51:01.905Z,15.85
2023-03-10T15:53:35.118Z,15.97
2023-03-10T15:56:21.996Z,16.05
2023-03-10T15:59:04.170Z,16.04
2023-03-10T16:01:47.504Z,16.10
2023-03-10T16:04:35.533Z,16.02
2023-03-10T16:07:09.865Z,16.02
2023-03-10T16:09:45.092Z,15.89
2023-03-10T16:12:20.171Z,15.82
2023-03-10T16:14:53.949Z,15.59
2023-03-10T16:17:43.713Z,15.60
2023-03-10T16:20:21.554Z,15.47
2023-03-10T16:23:08.141Z,15.34
2023-03-10T16:25:47.495Z,15.24
2023-03-10T16:28:28.066Z,15.12
2023-03-10T16:31:01.880Z,14.98
2023-03-10T16:33:38.291Z,14.89
2023-03-10T16:36:26.085Z,14.85
2023-03-10T16:39:13.396Z,14.64
2023-03-10T16:41:46.677Z,14.74
2023-03-10T16:44:29.914Z,14.72
2023-03-10T16:47:15.208Z,14.66
2023-03-10T16:49:51.993Z,14.62
2023-03-10T16:52:26.736Z,14.60
2023-03-10T16:55:11.351Z,14.55
2023-03-10T16:57:43.939Z,14.34
2023-03-10T17:00:25.445Z,14.52
2023-03-10T17:03:01.750Z,14.44
2023-03-10T17:05:45.598Z,14.42
2023-03-10T17:08:22.130Z,14.40
2023-03-10T17:11:00.001Z,14.39
2023-03-10T17:13:48.531Z,14.20
2023-03-10T17:16:21.006Z,14.31
2023-03-10T17:18:52.101Z,14.31
2023-03-10T17:21:31.155Z,14.28
2023-03-10T17:24:04.671Z,14.24
2023-03-10T17:26:39.807Z,14.22
2023-03-10T17:29:25.670Z,14.17
2023-03-10T17:32:03.214Z,14.09
2023-03-10T17:34:39.512Z,13.98
2023-03-10T17:37:11.957Z,14.10
2023-03-10T17:39:48.280Z,14.07
2023-03-10T17:42:40.532Z,14.01
2023-03-10T17:45:29.082Z,13.99
2023-03-10T17:48:09.032Z,13.96
2023-03-10T17:50:42.656Z,13.96
2023-03-10T17:53:19.964Z,13.93
2023-03-10T17:55:52.198Z,13.88
2023-03-10T17:58:32.862Z,13.83
2023-03-10T18:01:16.339Z,13.81
2023-03-10T18:03:51.355Z,13.72
2023-03-10T18:06:29.361Z,14.29
2023-03-10T18:09:10.906Z,14.72
2023-03-10T18:11:47.138Z,15.27
2023-03-10T18:14:32.472Z,15.65
2023-03-10T18:17:05.510Z,16.05
2023-03-10T18:19:39.561Z,16.34
2023-03-10T18:22:13.927Z,16.65
2023-03-10T18:24:50.387Z,16.89
2023-03-10T18:27:36.094Z,17.09
2023-03-10T18:30:22.763Z,17.23
2023-03-10T18:32:58.847Z,17.39
2023-03-10T18:35:35.602Z,17.17
2023-03-10T18:38:23.780Z,16.88
2023-03-10T18:41:05.775Z,16.52
2023-03-10T18:43:41.890Z,16.09
2023-03-10T18:46:18.413Z,15.83
2023-03-10T18:48:58.216Z,15.41
2023-03-10T18:51:33.755Z,15.28
2023-03-10T18:54:10.329Z,15.05
2023-03-10T18:56:43.762Z,14.73
2023-03-10T18:59:19.747Z,14.68
2023-03-10T19:01:59.400Z,14.39
2023-03-10T19:04:30.667Z,14.32
2023-03-10T19:07:03.856Z,14.31
2023-03-10T19:09:38.140Z,14.06
2023-03-10T19:12:11.532Z,14.18
2023-03-10T19:14:49.940Z,14.10
2023-03-10T19:17:24.809Z,14.03
2023-03-10T19:19:56.900Z,13.91
2023-03-10T19:22:42.367Z,13.67
2023-03-10T19:25:18.230Z,13.66
2023-03-10T19:27:55.459Z,13.52
2023-03-10T19:30:31.740Z,13.45
2023-03-10T19:33:20.100Z,13.24
2023-03-10T19:35:56.939Z,13.20
2023-03-10T19:38:31.836Z,13.13
2023-03-10T19:41:11.817Z,12.97
2023-03-10T19:43:52.248Z,12.84
2023-03-10T19:46:31.595Z,12.55
2023-03-10T19:49:25.330Z,12.59
2023-03-10T19:52:23.319Z,12.49
2023-03-10T19:58:08.560Z,12.41
2023-03-10T20:00:58.647Z,12.52
2023-03-10T20:03:35.943Z,12.67
2023-03-10T20:06:12.252Z,12.68
2023-03-10T20:08:46.603Z,12.55
2023-03-10T20:14:14.760Z,12.77
2023-03-10T20:16:49.293Z,12.83
2023-03-10T20:19:35.261Z,12.83
2023-03-10T20:25:22.299Z,12.80
2023-03-10T20:27:59.399Z,12.77
2023-03-10T20:30:33.493Z,12.70
2023-03-10T20:33:13.428Z,12.64
2023-03-10T20:35:44.723Z,12.65
2023-03-10T20:38:37.205Z,12.32
2023-03-10T20:41:13.232Z,12.40
2023-03-10T20:43:46.256Z,12.34
2023-03-10T20:46:29.634Z,12.05
2023-03-10T20:49:17.121Z,12.20
2023-03-10T20:52:09.502Z,12.08
2023-03-10T20:55:08.546Z,11.84
2023-03-10T20:57:42.845Z,11.89
2023-03-10T21:00:30.754Z,11.69
2023-03-10T21:03:09.885Z,11.53
2023-03-10T21:05:51.139Z,11.28
2023-03-10T21:08:31.996Z,11.30
2023-03-10T21:11:22.528Z,11.46
2023-03-10T21:14:05.172Z,11.39
2023-03-10T21:17:03.126Z,11.54
2023-03-10T21:19:38.691Z,11.57
2023-03-10T21:22:23.012Z,11.69
2023-03-10T21:24:56.247Z,11.72
2023-03-10T21:27:49.910Z,11.79
2023-03-10T21:30:30.350Z,11.57
2023-03-10T21:33:06.681Z,11.73
2023-03-10T21:35:49.167Z,11.83
2023-03-10T21:38:41.228Z,11.80
2023-03-10T21:41:22.821Z,11.67
2023-03-10T21:44:07.886Z,11.32
2023-03-10T21:46:41.817Z,11.57
2023-03-10T21:49:20.683Z,11.47
2023-03-10T21:52:06.277Z,11.38
2023-03-10T21:54:46.153Z,11.22
2023-03-10T21:57:25.960Z,11.26
2023-03-10T22:03:30.689Z,11.34
2023-03-10T22:06:07.128Z,11.33
2023-03-10T22:08:49.042Z,11.34
2023-03-10T22:11:41.382Z,11.33
2023-03-10T22:14:16.353Z,11.32
2023-03-10T22:17:11.730Z,11.27
2023-03-10T22:19:49.740Z,11.15
2023-03-10T22:22:25.772Z,11.15
2023-03-10T22:25:07.065Z,11.35
2023-03-10T22:27:43.821Z,11.37
2023-03-10T22:30:17.181Z,11.33
2023-03-10T22:33:05.426Z,11.37
2023-03-10T22:35:56.525Z,11.39
2023-03-10T22:38:29.668Z,11.31
2023-03-10T22:41:10.051Z,11.34
2023-03-10T22:43:50.471Z,11.34
2023-03-10T22:46:51.553Z,11.38
2023-03-10T22:49:34.746Z,11.29
2023-03-10T22:52:08.168Z,11.27
2023-03-10T22:54:41.390Z,11.36
2023-03-10T22:57:16.709Z,11.35
2023-03-10T23:00:02.047Z,11.24
2023-03-10T23:02:37.415Z,11.35
2023-03-10T23:05:15.726Z,11.38
2023-03-10T23:07:48.381Z,11.33
2023-03-10T23:10:24.536Z,11.12
2023-03-10T23:12:57.776Z,11.21
2023-03-10T23:15:31.563Z,11.47
2023-03-10T23:18:02.045Z,11.46
2023-03-10T23:20:37.749Z,11.50
2023-03-10T23:23:10.488Z,11.44
2023-03-10T23:25:43.214Z,11.49
2023-03-10T23:28:24.537Z,11.50
2023-03-10T23:31:01.232Z,11.23
2023-03-10T23:33:33.279Z,11.52
2023-03-10T23:36:16.403Z,11.57
2023-03-10T23:38:58.059Z,11.42
2023-03-10T23:41:32.164Z,11.57
2023-03-10T23:44:18.669Z,11.42
2023-03-10T23:46:58.315Z,11.57
2023-03-10T23:49:39.782Z,11.45
2023-03-10T23:52:20.167Z,11.56
2023-03-10T23:54:57.850Z,11.61
2023-03-10T23:57:55.186Z,11.62
